createdAt,value
2022-12-18T00:00:31.078Z,100
2022-12-18T00:10:31.760Z,100
2022-12-18T00:20:32.222Z,100
2022-12-18T00:30:33.266Z,100
2022-12-18T00:40:34.063Z,100
2022-12-18T00:50:34.540Z,100
2022-12-18T01:10:35.517Z,100
2022-12-18T01:20:36.136Z,100
2022-12-18T01:30:36.248Z,100
2022-12-18T01:40:36.456Z,100
2022-12-18T01:50:36.811Z,100
2022-12-18T02:00:37.606Z,100
2022-12-18T02:20:38.639Z,100
2022-12-18T02:30:39.560Z,100
2022-12-18T02:40:40.530Z,100
2022-12-18T02:50:40.728Z,100
2022-12-18T03:00:41.670Z,100
2022-12-18T03:10:42.594Z,100
2022-12-18T03:20:43.097Z,100
2022-12-18T03:30:43.405Z,100
2022-12-18T03:40:44.220Z,100
2022-12-18T03:50:45.179Z,100
2022-12-18T04:00:45.605Z,100
2022-12-18T04:10:46.417Z,100
2022-12-18T04:20:47.084Z,100
2022-12-18T04:30:48.086Z,100
2022-12-18T04:40:48.075Z,100
2022-12-18T05:00:48.430Z,100
2022-12-18T05:20:49.837Z,100
2022-12-18T05:50:51.937Z,100
2022-12-18T06:40:55.592Z,100
2022-12-18T06:50:55.723Z,100
2022-12-18T07:10:57.419Z,100
2022-12-18T07:20:57.777Z,100
2022-12-18T07:50:59.912Z,100
2022-12-18T08:31:02.530Z,100
2022-12-18T08:41:03.091Z,100
2022-12-18T09:01:03.951Z,100
2022-12-18T09:11:04.922Z,100
2022-12-18T09:21:05.698Z,100
2022-12-18T10:31:10.873Z,100
2022-12-18T11:21:14.574Z,100
2022-12-18T11:41:16.038Z,100
2022-12-18T11:51:16.377Z,100
2022-12-18T12:01:17.399Z,100
2022-12-18T12:11:17.455Z,100
2022-12-18T12:21:18.357Z,100
2022-12-18T12:31:19.287Z,100
2022-12-18T12:41:19.602Z,100
2022-12-18T12:51:20.499Z,100
2022-12-18T13:01:23.478Z,100
2022-12-18T13:21:22.075Z,100
2022-12-18T13:31:22.723Z,100
2022-12-18T13:41:23.119Z,100
2022-12-18T13:51:23.769Z,100
2022-12-18T14:01:24.572Z,100
2022-12-18T14:11:26.340Z,100
2022-12-18T14:21:25.959Z,100
2022-12-18T14:41:26.744Z,100
2022-12-18T14:51:27.491Z,100
2022-12-18T15:11:28.766Z,100
2022-12-18T15:21:29.538Z,100
2022-12-18T15:31:30.087Z,100
2022-12-18T15:41:30.801Z,100
2022-12-18T15:51:31.615Z,100
2022-12-18T16:11:32.996Z,100
2022-12-18T16:31:34.469Z,100
2022-12-18T16:41:34.573Z,100
2022-12-18T16:51:35.092Z,99
2022-12-18T17:01:35.308Z,99
2022-12-18T17:11:35.479Z,99
2022-12-18T17:21:36.296Z,98
2022-12-18T17:31:36.822Z,98
2022-12-18T17:41:37.337Z,98
2022-12-18T17:51:37.631Z,98
2022-12-18T18:01:43.917Z,98
2022-12-18T18:11:38.502Z,99
2022-12-18T18:21:39.080Z,99
2022-12-18T18:31:41.148Z,99
2022-12-18T18:51:40.251Z,99
2022-12-18T19:01:40.718Z,98
2022-12-18T19:11:41.493Z,97
2022-12-18T19:21:42.334Z,96
2022-12-18T19:31:43.011Z,95
2022-12-18T19:41:43.797Z,93
2022-12-18T19:51:44.143Z,92
2022-12-18T20:01:44.834Z,92
2022-12-18T20:11:45.355Z,90
2022-12-18T20:31:47.187Z,88
2022-12-18T20:41:48.198Z,87
2022-12-18T20:51:49.264Z,87
2022-12-18T21:01:50.042Z,86
2022-12-18T21:11:50.414Z,86
2022-12-18T21:21:50.892Z,87
2022-12-18T21:31:51.559Z,88
2022-12-18T21:41:52.016Z,89
2022-12-18T21:51:52.578Z,90
2022-12-18T22:01:53.111Z,91
2022-12-18T22:11:54.018Z,93
2022-12-18T22:21:54.942Z,94
2022-12-18T22:31:55.320Z,95
2022-12-18T22:41:56.281Z,95
2022-12-18T22:51:57.322Z,96
2022-12-18T23:01:58.904Z,97
2022-12-18T23:21:59.561Z,98
2022-12-18T23:32:00.361Z,98
2022-12-18T23:42:01.296Z,99
2022-12-18T23:52:01.682Z,99
